Time;durP1;ratioP1;P1;durP2;ratioP2;P2;SDS_P1;SDS_P2;PMS_P1;PMS_P2;Temp;Humidity;BMP_temperature;BMP_pressure;BME280_temperature;BME280_humidity;BME280_pressure;Samples;Min_cycle;Max_cycle;Signal;HPM_P1;HPM_P2
2024/01/27 00:01:40;;;;;;;47.75;19.35;;;;;;;-5.47;100.00;100423.72;10256410;28;20106;-75
2024/01/27 00:06:41;;;;;;;51.97;19.52;;;;;;;-5.31;100.00;100429.06;10258141;28;20481;-74
2024/01/27 00:11:42;;;;;;;59.63;19.65;;;;;;;-5.35;100.00;100423.19;10256512;28;20504;-75
2024/01/27 00:16:42;;;;;;;58.53;19.52;;;;;;;-5.42;100.00;100406.22;10256316;28;20047;-75
2024/01/27 00:21:43;;;;;;;54.88;21.17;;;;;;;-5.27;100.00;100423.69;10255960;28;20050;-75
2024/01/27 00:26:44;;;;;;;67.88;22.02;;;;;;;-5.27;100.00;100417.66;10256325;28;20038;-75
2024/01/27 00:31:44;;;;;;;63.17;20.60;;;;;;;-5.37;100.00;100372.38;10256693;28;20035;-74
2024/01/27 00:36:48;;;;;;;50.28;20.05;;;;;;;-5.42;100.00;100354.44;10255676;28;20045;-74
2024/01/27 00:41:49;;;;;;;55.03;21.02;;;;;;;-4.99;100.00;100413.91;10255172;28;20069;-74
2024/01/27 00:46:50;;;;;;;54.53;20.35;;;;;;;-4.92;100.00;100412.72;10255687;28;20142;-75
2024/01/27 00:51:50;;;;;;;53.13;19.80;;;;;;;-4.94;100.00;100414.53;10255791;28;20051;-74
2024/01/27 00:56:52;;;;;;;57.72;20.52;;;;;;;-5.01;100.00;100413.94;10254838;28;20042;-74
2024/01/27 01:01:52;;;;;;;55.13;21.13;;;;;;;-5.19;100.00;100397.47;10255318;28;20051;-74
2024/01/27 01:06:53;;;;;;;46.97;18.42;;;;;;;-5.08;100.00;100410.78;10254493;28;20035;-74
2024/01/27 01:11:54;;;;;;;48.90;19.33;;;;;;;-5.22;100.00;100397.59;10255146;28;20043;-74
2024/01/27 01:16:55;;;;;;;50.20;19.08;;;;;;;-5.43;100.00;100352.75;10254622;28;20127;-74
2024/01/27 01:21:56;;;;;;;59.08;20.45;;;;;;;-5.24;100.00;100396.81;10253849;28;20039;-74
2024/01/27 01:26:56;;;;;;;49.97;18.92;;;;;;;-5.24;100.00;100394.22;10253603;28;20039;-75
2024/01/27 01:31:57;;;;;;;44.65;19.27;;;;;;;-5.14;100.00;100392.94;10253023;28;20043;-74
2024/01/27 01:36:58;;;;;;;47.83;19.42;;;;;;;-4.99;100.00;100401.78;10253656;28;20511;-74
2024/01/27 01:41:58;;;;;;;46.47;18.95;;;;;;;-4.87;100.00;100403.00;10253286;28;20043;-74
2024/01/27 01:46:59;;;;;;;59.45;20.27;;;;;;;-5.18;100.00;100367.22;10253443;28;20063;-74
2024/01/27 01:52:01;;;;;;;54.13;20.13;;;;;;;-5.17;100.00;100358.56;10253687;28;20131;-74
2024/01/27 01:57:03;;;;;;;44.35;17.25;;;;;;;-4.84;100.00;100403.69;10252458;28;20069;-74
2024/01/27 02:02:04;;;;;;;41.88;18.90;;;;;;;-4.74;100.00;100406.69;10252815;28;20047;-74
2024/01/27 02:07:05;;;;;;;50.80;20.73;;;;;;;-4.78;100.00;100391.38;10252626;28;20090;-74
2024/01/27 02:12:06;;;;;;;56.08;19.45;;;;;;;-4.71;100.00;100406.56;10252059;28;20042;-75
2024/01/27 02:17:07;;;;;;;46.83;19.88;;;;;;;-5.02;100.00;100350.09;10253274;28;20043;-74
2024/01/27 02:22:08;;;;;;;51.55;19.50;;;;;;;-4.70;100.00;100384.06;10252077;28;20050;-74
2024/01/27 02:27:09;;;;;;;57.25;20.80;;;;;;;-4.91;100.00;100341.84;10251266;28;20038;-74
2024/01/27 02:32:09;;;;;;;53.28;19.73;;;;;;;-4.94;100.00;100321.25;10251426;28;20066;-74
2024/01/27 02:37:10;;;;;;;57.38;20.13;;;;;;;-4.76;100.00;100368.81;10251902;28;20122;-74
2024/01/27 02:42:11;;;;;;;54.08;20.52;;;;;;;-4.77;100.00;100380.09;10251010;28;20051;-74
2024/01/27 02:47:12;;;;;;;52.63;20.75;;;;;;;-4.62;100.00;100415.69;10252079;28;20055;-74
2024/01/27 02:52:13;;;;;;;53.90;21.20;;;;;;;-4.54;100.00;100410.16;10250962;28;20050;-74
2024/01/27 02:57:16;;;;;;;54.08;20.30;;;;;;;-4.55;100.00;100400.69;10251544;28;20500;-74
2024/01/27 03:02:17;;;;;;;58.47;21.20;;;;;;;-4.79;100.00;100359.41;10251345;28;20070;-74
2024/01/27 03:07:18;;;;;;;59.03;22.02;;;;;;;-4.82;100.00;100351.78;10251359;28;20046;-74
2024/01/27 03:12:19;;;;;;;65.22;21.50;;;;;;;-4.92;100.00;100363.47;10251225;28;20047;-74
2024/01/27 03:17:20;;;;;;;66.43;22.85;;;;;;;-4.59;100.00;100418.97;10250606;28;20050;-74
2024/01/27 03:22:20;;;;;;;72.15;24.70;;;;;;;-4.54;100.00;100410.16;10251229;28;20047;-74
2024/01/27 03:27:21;;;;;;;65.32;22.65;;;;;;;-4.88;100.00;100367.59;10250461;28;20043;-74
2024/01/27 03:32:22;;;;;;;61.95;22.88;;;;;;;-4.55;100.00;100403.25;10250387;28;20047;-74
2024/01/27 03:37:23;;;;;;;70.68;23.08;;;;;;;-4.55;100.00;100416.22;10256016;28;20035;-74
2024/01/27 03:42:24;;;;;;;64.70;21.85;;;;;;;-4.78;100.00;100379.25;10258839;28;20047;-74
2024/01/27 03:47:24;;;;;;;60.90;21.73;;;;;;;-4.43;100.00;100423.44;10257178;28;20138;-74
2024/01/27 03:52:25;;;;;;;58.78;22.13;;;;;;;-4.72;100.00;100368.59;10257416;28;20057;-74
2024/01/27 03:57:26;;;;;;;63.83;22.58;;;;;;;-4.52;100.00;100418.69;10257424;28;20111;-74
2024/01/27 04:02:26;;;;;;;59.53;21.65;;;;;;;-4.40;100.00;100425.88;10257378;28;20043;-74
2024/01/27 04:07:27;;;;;;;69.38;22.10;;;;;;;-4.66;100.00;100373.50;10255833;28;20098;-73
2024/01/27 04:12:28;;;;;;;57.60;21.10;;;;;;;-4.79;100.00;100361.16;10256536;28;20043;-74
2024/01/27 04:17:28;;;;;;;59.30;20.75;;;;;;;-4.40;100.00;100425.88;10256136;28;20043;-73
2024/01/27 04:22:29;;;;;;;63.33;21.33;;;;;;;-4.66;100.00;100396.84;10255837;28;20038;-74
2024/01/27 04:27:30;;;;;;;59.25;20.52;;;;;;;-4.51;100.00;100439.38;10255915;28;20055;-73
2024/01/27 04:32:31;;;;;;;63.47;22.10;;;;;;;-4.64;100.00;100446.00;10255779;28;20106;-73
2024/01/27 04:37:31;;;;;;;57.10;19.70;;;;;;;-4.53;100.00;100463.69;10255650;28;20039;-74
2024/01/27 04:42:42;;;;;;;56.88;20.15;;;;;;;-4.71;100.00;100424.69;10251634;28;20142;-73
2024/01/27 04:47:43;;;;;;;44.42;17.45;;;;;;;-4.39;100.00;100456.13;10255504;28;20042;-73
2024/01/27 04:52:43;;;;;;;45.92;18.73;;;;;;;-4.31;100.00;100461.78;10254986;28;20126;-73
2024/01/27 04:57:44;;;;;;;54.70;18.17;;;;;;;-4.30;100.00;100444.47;10255303;28;20035;-73
2024/01/27 05:02:45;;;;;;;44.25;17.80;;;;;;;-4.61;100.00;100386.25;10255299;28;20531;-73
2024/01/27 05:07:47;;;;;;;42.47;16.95;;;;;;;-4.43;100.00;100423.44;10254514;28;20035;-73
2024/01/27 05:12:48;;;;;;;48.78;18.27;;;;;;;-4.27;100.00;100437.41;10254698;28;20039;-73
2024/01/27 05:17:49;;;;;;;43.00;17.88;;;;;;;-4.23;100.00;100438.09;10253868;28;20099;-73
2024/01/27 05:22:50;;;;;;;45.25;17.90;;;;;;;-4.23;100.00;100425.94;10254176;28;20043;-73
2024/01/27 05:27:50;;;;;;;50.22;19.60;;;;;;;-4.13;100.00;100435.00;10254430;28;20146;-74
2024/01/27 05:32:51;;;;;;;49.80;20.55;;;;;;;-4.08;100.00;100436.53;10254053;28;20035;-73
2024/01/27 05:37:53;;;;;;;64.88;21.63;;;;;;;-4.02;100.00;100444.84;10253388;28;20448;-73
2024/01/27 05:42:54;;;;;;;83.05;29.88;;;;;;;-3.96;100.00;100433.34;10252751;28;20051;-75
2024/01/27 05:47:55;;;;;;;61.05;24.75;;;;;;;-3.75;100.00;100442.69;10243191;28;20042;-74
2024/01/27 05:52:56;;;;;;;48.60;21.50;;;;;;;-3.65;100.00;100437.03;10261216;28;20416;-75
2024/01/27 05:57:57;;;;;;;71.20;22.63;;;;;;;-3.50;100.00;100451.88;10252179;28;20495;-74
2024/01/27 06:02:58;;;;;;;57.08;23.02;;;;;;;-3.33;100.00;100453.63;10249689;28;20480;-74
2024/01/27 06:07:58;;;;;;;48.75;20.20;;;;;;;-3.26;100.00;100466.25;10253032;28;20447;-74
2024/01/27 06:12:59;;;;;;;46.40;19.52;;;;;;;-3.36;100.00;100454.63;10252808;28;20043;-74
2024/01/27 06:18:00;;;;;;;41.60;18.98;;;;;;;-3.53;100.00;100420.84;10252449;28;20047;-74
2024/01/27 06:23:01;;;;;;;43.83;18.48;;;;;;;-3.13;100.00;100469.06;10250681;28;20046;-74
2024/01/27 06:28:01;;;;;;;45.92;19.75;;;;;;;-3.05;100.00;100464.31;10252386;28;20062;-74
2024/01/27 06:33:02;;;;;;;45.88;18.67;;;;;;;-3.14;100.00;100449.22;10252326;28;20126;-74
2024/01/27 06:38:03;;;;;;;43.40;18.60;;;;;;;-3.21;100.00;100427.03;10252473;28;20542;-74
2024/01/27 06:43:04;;;;;;;49.08;19.27;;;;;;;-2.83;100.00;100471.84;10250724;28;20063;-69
2024/01/27 06:48:06;;;;;;;46.20;18.92;;;;;;;-3.00;100.00;100425.09;10251274;28;20186;-75
2024/01/27 06:53:07;;;;;;;43.55;19.58;;;;;;;-2.71;100.00;100452.16;10251463;28;20045;-74
2024/01/27 06:58:08;;;;;;;43.35;18.30;;;;;;;-2.61;100.00;100453.34;10251630;28;20039;-75
2024/01/27 07:03:09;;;;;;;45.00;19.13;;;;;;;-2.55;100.00;100454.78;10249136;28;20435;-75
2024/01/27 07:08:10;;;;;;;44.00;19.17;;;;;;;-2.34;100.00;100440.63;10251215;28;20257;-75
2024/01/27 07:13:11;;;;;;;42.35;18.90;;;;;;;-2.33;100.00;100413.72;10259038;28;20052;-72
2024/01/27 07:18:12;;;;;;;48.78;20.10;;;;;;;-2.43;100.00;100389.09;10257076;28;20047;-74
2024/01/27 07:23:12;;;;;;;49.90;22.85;;;;;;;-2.33;100.00;100392.88;10258848;28;20491;-74
2024/01/27 07:28:15;;;;;;;55.05;23.02;;;;;;;-2.30;100.00;100371.06;10258140;28;20043;-74
2024/01/27 07:33:16;;;;;;;56.90;22.20;;;;;;;-1.70;100.00;100451.00;10257941;28;20388;-75
2024/01/27 07:38:17;;;;;;;62.03;23.88;;;;;;;-1.74;100.00;100450.31;10258877;28;20043;-75
2024/01/27 07:43:17;;;;;;;51.42;23.40;;;;;;;-1.82;100.00;100457.75;10256284;29;20495;-74
2024/01/27 07:48:18;;;;;;;52.22;21.83;;;;;;;-1.63;100.00;100467.97;10257436;28;20137;-74
2024/01/27 07:53:19;;;;;;;48.70;20.73;;;;;;;-1.52;100.00;100455.16;10257631;28;20126;-73
2024/01/27 07:58:19;;;;;;;56.70;20.85;;;;;;;-1.67;100.00;100404.78;10258144;28;20039;-75
2024/01/27 08:03:20;;;;;;;43.78;19.88;;;;;;;-1.27;100.00;100444.16;10257439;28;20047;-74
2024/01/27 08:08:21;;;;;;;51.65;20.23;;;;;;;-1.19;100.00;100461.97;10256684;28;20039;-73
2024/01/27 08:13:21;;;;;;;46.05;18.80;;;;;;;-1.17;100.00;100447.91;10256957;28;20066;-74
2024/01/27 08:18:22;;;;;;;43.83;19.60;;;;;;;-1.21;100.00;100429.94;10257233;28;20043;-74
2024/01/27 08:23:23;;;;;;;43.08;19.38;;;;;;;-1.06;100.00;100439.44;10256185;28;20098;-74
2024/01/27 08:28:24;;;;;;;42.75;18.80;;;;;;;-1.34;100.00;100380.31;10256300;28;20459;-74
2024/01/27 08:33:25;;;;;;;49.10;19.10;;;;;;;-1.06;100.00;100413.38;10255722;28;20070;-74
2024/01/27 08:38:25;;;;;;;52.28;19.90;;;;;;;-1.33;100.00;100381.13;10231446;29;20043;-74
2024/01/27 08:43:26;;;;;;;44.15;20.02;;;;;;;-1.27;100.00;100375.56;10249992;28;20055;-74
2024/01/27 08:48:28;;;;;;;49.90;18.52;;;;;;;-1.03;100.00;100409.75;10254703;28;20043;-74
2024/01/27 08:53:29;;;;;;;43.08;18.10;;;;;;;-0.81;100.00;100411.88;10255668;28;20055;-74
2024/01/27 08:58:29;;;;;;;53.58;18.13;;;;;;;-0.85;100.00;100408.63;10255578;28;20497;-74
2024/01/27 09:03:30;;;;;;;45.50;18.05;;;;;;;-0.85;100.00;100410.41;10255477;28;20047;-75
2024/01/27 09:08:31;;;;;;;56.53;17.67;;;;;;;-0.88;100.00;100390.56;10254973;28;20051;-76
2024/01/27 09:13:31;;;;;;;40.42;18.35;;;;;;;-0.77;100.00;100390.75;10250532;28;20054;-76
2024/01/27 09:18:32;;;;;;;40.33;18.20;;;;;;;-0.70;100.00;100399.84;10249970;29;20043;-76
2024/01/27 09:23:33;;;;;;;40.13;17.00;;;;;;;-0.82;100.00;100337.19;10254484;28;20047;-75
2024/01/27 09:28:34;;;;;;;38.45;17.70;;;;;;;-0.64;100.00;100372.56;10254067;28;20039;-75
2024/01/27 09:33:35;;;;;;;44.88;17.15;;;;;;;-0.70;100.00;100378.16;10252614;28;20043;-74
2024/01/27 09:38:36;;;;;;;41.03;17.02;;;;;;;-0.86;100.00;100369.63;10253303;28;20050;-74
2024/01/27 09:43:40;;;;;;;52.47;18.38;;;;;;;-0.79;100.00;100382.16;10253398;28;20067;-74
2024/01/27 09:48:42;;;;;;;44.75;17.88;;;;;;;-1.05;100.00;100349.84;10253769;28;20078;-75
2024/01/27 09:53:43;;;;;;;51.58;18.73;;;;;;;-0.70;100.00;100365.13;10252716;28;20043;-74
2024/01/27 09:58:45;;;;;;;56.45;19.50;;;;;;;-0.94;100.00;100307.50;10252680;28;20058;-74
2024/01/27 10:03:47;;;;;;;40.08;17.25;;;;;;;-0.55;100.00;100358.09;10253117;28;20480;-74
2024/01/27 10:08:55;;;;;;;56.08;22.05;;;;;;;-0.48;100.00;100348.94;10252513;28;20515;-74
2024/01/27 10:13:57;;;;;;;84.68;21.00;;;;;;;-0.53;100.00;100357.06;10252356;28;20035;-74
2024/01/27 10:19:02;;;;;;;64.45;20.98;;;;;;;-0.83;100.00;100296.41;10251020;28;20058;-74
2024/01/27 10:24:06;;;;;;;48.85;20.20;;;;;;;-0.42;100.00;100335.50;10251537;28;20047;-74
2024/01/27 10:29:09;;;;;;;65.97;20.52;;;;;;;-0.34;100.00;100345.47;10251740;28;20407;-74
2024/01/27 10:34:14;;;;;;;52.67;21.48;;;;;;;-0.61;100.00;100299.31;10252135;28;20043;-74
2024/01/27 10:39:20;;;;;;;55.80;21.15;;;;;;;-0.17;100.00;100337.38;10252161;28;20071;-74
2024/01/27 10:44:21;;;;;;;53.25;21.90;;;;;;;-0.13;100.00;100340.63;10250285;29;20137;-74
2024/01/27 10:49:23;;;;;;;51.03;21.30;;;;;;;-0.10;100.00;100328.19;10251525;28;20057;-77
2024/01/27 10:54:26;;;;;;;60.60;22.90;;;;;;;-0.09;100.00;100331.66;10251704;28;20043;-75
2024/01/27 10:59:28;;;;;;;47.92;21.73;;;;;;;-0.23;100.00;100280.34;10250838;28;20524;-75
2024/01/27 11:04:32;;;;;;;53.03;21.60;;;;;;;0.18;100.00;100321.16;10251828;28;20055;-75
2024/01/27 11:09:35;;;;;;;44.58;19.38;;;;;;;0.40;100.00;100331.84;10251415;28;20404;-75
2024/01/27 11:14:36;;;;;;;51.55;22.05;;;;;;;0.55;100.00;100326.53;10250128;28;20047;-75
2024/01/27 11:19:37;;;;;;;47.65;22.75;;;;;;;0.71;100.00;100327.16;10250670;28;20584;-75
2024/01/27 11:24:38;;;;;;;47.78;21.35;;;;;;;0.85;100.00;100331.44;10251122;28;20407;-77
2024/01/27 11:29:47;;;;;;;40.42;19.63;;;;;;;0.96;100.00;100318.47;10249314;29;20039;-75
2024/01/27 11:34:48;;;;;;;46.88;20.65;;;;;;;1.08;100.00;100332.47;10250950;28;20046;-75
2024/01/27 11:39:49;;;;;;;40.95;20.17;;;;;;;0.78;100.00;100298.78;10250727;28;20531;-75
2024/01/27 11:44:49;;;;;;;37.75;18.23;;;;;;;0.81;100.00;100338.66;10250001;28;20062;-75
2024/01/27 11:49:53;;;;;;;36.85;19.20;;;;;;;0.47;100.00;100310.53;10250956;28;20420;-75
2024/01/27 11:55:03;;;;;;;38.40;18.50;;;;;;;0.42;100.00;100310.88;10249175;28;20506;-75
2024/01/27 12:00:05;;;;;;;35.45;17.90;;;;;;;0.62;100.00;100359.16;10256981;28;20035;-75
2024/01/27 12:05:08;;;;;;;37.80;18.48;;;;;;;0.32;100.00;100309.78;10256854;28;20419;-74
2024/01/27 12:10:09;;;;;;;37.42;18.20;;;;;;;0.75;100.00;100369.59;10256645;28;20050;-74
2024/01/27 12:15:10;;;;;;;36.40;17.92;;;;;;;0.79;100.00;100369.31;10256677;28;20121;-74
2024/01/27 12:20:17;;;;;;;37.75;19.17;;;;;;;0.69;100.00;100363.03;10255828;28;20134;-74
2024/01/27 12:25:21;;;;;;;46.55;21.52;;;;;;;0.74;100.00;100391.47;10256588;28;20050;-75
2024/01/27 12:30:22;;;;;;;44.08;22.38;;;;;;;0.42;100.00;100348.28;10253163;28;20109;-76
2024/01/27 12:35:23;;;;;;;46.67;21.23;;;;;;;0.63;100.00;100395.66;10251863;28;20050;-76
2024/01/27 12:40:24;;;;;;;44.35;20.40;;;;;;;0.37;100.00;100363.41;10249230;28;20054;-76
2024/01/27 12:45:25;;;;;;;41.85;19.85;;;;;;;0.62;100.00;100414.06;10256664;28;20539;-76
2024/01/27 12:50:25;;;;;;;38.72;19.15;;;;;;;0.51;100.00;100414.78;10255806;28;20046;-75
2024/01/27 12:55:26;;;;;;;37.33;18.33;;;;;;;0.52;100.00;100419.06;10255722;28;20043;-74
2024/01/27 13:00:27;;;;;;;37.83;19.15;;;;;;;0.55;100.00;100428.47;10254612;28;20448;-74
2024/01/27 13:05:29;;;;;;;38.75;18.90;;;;;;;0.54;100.00;100427.66;10255588;28;20423;-74
2024/01/27 13:10:30;;;;;;;34.67;17.20;;;;;;;0.59;100.00;100432.56;10253768;28;20134;-74
2024/01/27 13:15:31;;;;;;;38.80;18.02;;;;;;;0.28;100.00;100384.09;10254921;28;20126;-74
2024/01/27 13:20:31;;;;;;;38.63;18.38;;;;;;;0.21;100.00;100388.91;10253909;28;20106;-74
2024/01/27 13:25:32;;;;;;;34.08;16.88;;;;;;;0.26;100.00;100401.66;10252957;28;20039;-74
2024/01/27 13:30:33;;;;;;;36.33;17.27;;;;;;;0.30;100.00;100417.03;10254343;28;20047;-74
2024/01/27 13:35:34;;;;;;;33.70;17.52;;;;;;;0.49;100.00;100445.41;10253398;28;20035;-74
2024/01/27 13:40:34;;;;;;;43.35;18.13;;;;;;;0.36;100.00;100447.13;10236459;28;20382;-74
2024/01/27 13:45:35;;;;;;;40.33;18.92;;;;;;;0.39;100.00;100449.53;10247634;29;20077;-74
2024/01/27 13:50:36;;;;;;;38.65;18.98;;;;;;;0.40;100.00;100446.84;10245341;28;20381;-72
2024/01/27 13:55:37;;;;;;;42.95;19.98;;;;;;;0.16;100.00;100415.31;10239995;28;20546;-72
2024/01/27 14:00:38;;;;;;;37.70;18.67;;;;;;;0.18;100.00;100423.03;10238762;29;20035;-72
2024/01/27 14:05:38;;;;;;;42.72;19.45;;;;;;;0.44;100.00;100481.44;10236889;28;20047;-73
2024/01/27 14:10:39;;;;;;;45.10;20.77;;;;;;;0.08;100.00;100430.63;10239645;29;20057;-71
2024/01/27 14:15:40;;;;;;;41.35;20.20;;;;;;;0.10;100.00;100447.06;10239603;29;20098;-72
2024/01/27 14:20:41;;;;;;;38.53;18.73;;;;;;;-0.01;100.00;100434.66;10239709;28;20244;-72
2024/01/27 14:25:41;;;;;;;40.38;17.80;;;;;;;0.28;100.00;100499.06;10232827;28;20426;-71
2024/01/27 14:30:43;;;;;;;47.95;19.08;;;;;;;0.24;100.00;100487.97;10239865;28;20488;-71
2024/01/27 14:35:44;;;;;;;40.25;17.58;;;;;;;0.26;100.00;100499.16;10230312;29;20075;-71
2024/01/27 14:40:45;;;;;;;44.80;20.40;;;;;;;0.02;100.00;100479.81;10233542;29;20155;-71
2024/01/27 14:45:46;;;;;;;40.78;19.25;;;;;;;0.16;100.00;100513.75;10233960;28;20504;-71
2024/01/27 14:50:52;;;;;;;44.70;20.45;;;;;;;0.06;100.00;100515.25;10232607;28;20130;-71
2024/01/27 14:55:53;;;;;;;43.28;19.63;;;;;;;0.02;100.00;100516.38;10239288;28;20051;-71
2024/01/27 15:00:54;;;;;;;44.63;20.23;;;;;;;-0.20;100.00;100488.19;10235927;28;20506;-71
2024/01/27 15:05:55;;;;;;;43.85;20.02;;;;;;;0.05;100.00;100537.09;10229285;28;20110;-71
2024/01/27 15:10:56;;;;;;;48.38;21.20;;;;;;;-0.10;100.00;100505.75;10235794;29;20043;-73
2024/01/27 15:15:56;;;;;;;48.00;21.08;;;;;;;-0.13;100.00;100499.91;10233538;28;20095;-71
2024/01/27 15:20:57;;;;;;;40.63;20.45;;;;;;;0.03;100.00;100536.34;10229210;29;20131;-71
2024/01/27 15:26:01;;;;;;;40.60;18.50;;;;;;;0.11;100.00;100542.75;10234427;29;20487;-71
2024/01/27 15:31:02;;;;;;;39.15;19.58;;;;;;;-0.01;100.00;100535.69;10250282;28;20050;-71
2024/01/27 15:36:03;;;;;;;39.80;19.13;;;;;;;0.07;100.00;100537.84;10257984;28;20133;-72
2024/01/27 15:41:07;;;;;;;39.38;18.67;;;;;;;0.12;100.00;100544.47;10258747;28;20455;-72
2024/01/27 15:46:08;;;;;;;37.42;18.90;;;;;;;0.10;100.00;100546.31;10258306;28;20063;-72
2024/01/27 15:51:09;;;;;;;42.28;18.90;;;;;;;0.12;100.00;100554.03;10257534;28;20047;-72
2024/01/27 15:56:10;;;;;;;44.55;19.27;;;;;;;-0.39;100.00;100478.88;10257714;28;20057;-72
2024/01/27 16:01:11;;;;;;;36.70;19.13;;;;;;;0.07;100.00;100564.78;10257666;28;20130;-72
2024/01/27 16:06:11;;;;;;;39.08;18.80;;;;;;;0.08;100.00;100561.25;10256040;28;20411;-72
2024/01/27 16:11:12;;;;;;;40.22;19.27;;;;;;;0.08;100.00;100570.84;10256738;28;20074;-72
2024/01/27 16:16:13;;;;;;;40.92;19.70;;;;;;;0.04;100.00;100566.75;10257540;28;20043;-73
2024/01/27 16:21:13;;;;;;;40.75;19.70;;;;;;;0.00;100.00;100560.91;10257291;28;20038;-71
2024/01/27 16:26:14;;;;;;;38.70;18.95;;;;;;;0.11;100.00;100568.06;10254326;28;20050;-72
2024/01/27 16:31:15;;;;;;;38.13;18.38;;;;;;;0.10;100.00;100569.81;10254290;28;20043;-71
2024/01/27 16:36:16;;;;;;;38.97;19.80;;;;;;;-0.02;100.00;100555.75;10254508;28;20053;-72
2024/01/27 16:41:16;;;;;;;39.05;20.98;;;;;;;-0.09;100.00;100544.03;10243904;28;20039;-72
2024/01/27 16:46:17;;;;;;;38.00;19.27;;;;;;;0.09;100.00;100585.59;10253759;29;20065;-72
2024/01/27 16:51:18;;;;;;;43.63;18.67;;;;;;;0.01;100.00;100570.41;10253806;28;20138;-71
2024/01/27 16:56:19;;;;;;;42.75;20.10;;;;;;;0.10;100.00;100577.66;10254133;28;20129;-71
2024/01/27 17:01:20;;;;;;;38.60;18.00;;;;;;;-0.15;100.00;100546.16;10254758;28;20054;-71
2024/01/27 17:06:21;;;;;;;36.38;18.98;;;;;;;-0.36;100.00;100525.66;10244147;28;20054;-71
2024/01/27 17:11:21;;;;;;;36.97;18.35;;;;;;;0.01;100.00;100593.06;10227991;29;20040;-72
2024/01/27 17:16:22;;;;;;;39.08;19.55;;;;;;;0.00;100.00;100597.47;10241994;28;20059;-72
2024/01/27 17:21:23;;;;;;;36.67;18.77;;;;;;;-0.39;100.00;100541.53;10237595;28;20053;-72
2024/01/27 17:26:24;;;;;;;42.97;19.45;;;;;;;-0.09;100.00;100588.41;10242730;29;20053;-72
2024/01/27 17:31:25;;;;;;;39.90;18.83;;;;;;;-0.33;100.00;100569.00;10242424;29;20101;-71
2024/01/27 17:36:26;;;;;;;38.97;17.50;;;;;;;-0.27;100.00;100572.09;10243244;28;20515;-72
2024/01/27 17:41:27;;;;;;;43.15;20.02;;;;;;;-0.11;100.00;100598.09;10223889;28;20138;-72
2024/01/27 17:46:27;;;;;;;38.28;18.98;;;;;;;-0.44;100.00;100547.94;10229306;29;20051;-72
2024/01/27 17:51:28;;;;;;;40.97;19.00;;;;;;;-0.13;100.00;100610.41;10227765;28;20047;-72
2024/01/27 17:56:29;;;;;;;40.25;19.48;;;;;;;-0.14;100.00;100598.28;10228178;28;20078;-74
2024/01/27 18:01:30;;;;;;;40.65;20.83;;;;;;;-0.14;100.00;100607.91;10235371;29;20047;-72
2024/01/27 18:06:30;;;;;;;40.05;20.13;;;;;;;-0.44;100.00;100564.44;10230302;28;20126;-72
2024/01/27 18:11:31;;;;;;;40.35;18.83;;;;;;;-0.21;100.00;100602.19;10228980;28;20046;-71
2024/01/27 18:16:32;;;;;;;33.08;17.38;;;;;;;-0.24;100.00;100605.84;10226619;29;20046;-72
2024/01/27 18:21:34;;;;;;;31.85;15.18;;;;;;;-0.15;100.00;100617.50;10226735;29;20036;-71
2024/01/27 18:26:35;;;;;;;31.45;15.70;;;;;;;-0.14;100.00;100619.19;10228312;28;20439;-71
2024/01/27 18:31:40;;;;;;;32.35;16.52;;;;;;;-0.20;100.00;100606.50;10245958;29;20035;-71
2024/01/27 18:36:41;;;;;;;35.70;16.58;;;;;;;-0.35;100.00;100579.53;10251258;28;20500;-71
2024/01/27 18:41:43;;;;;;;36.78;16.17;;;;;;;-0.16;100.00;100634.09;10251058;28;20090;-72
2024/01/27 18:46:44;;;;;;;32.03;16.17;;;;;;;-0.16;100.00;100631.47;10250501;29;20389;-71
2024/01/27 18:51:48;;;;;;;34.65;17.25;;;;;;;-0.12;100.00;100634.75;10251894;28;20051;-68
2024/01/27 18:56:49;;;;;;;28.80;15.40;;;;;;;-0.15;100.00;100638.41;10251156;28;20090;-71
2024/01/27 19:01:50;;;;;;;27.38;15.15;;;;;;;-0.20;100.00;100627.38;10251564;28;20558;-72
2024/01/27 19:06:51;;;;;;;32.47;15.20;;;;;;;-0.17;100.00;100637.66;10255499;28;20051;-71
2024/01/27 19:11:51;;;;;;;31.67;15.55;;;;;;;-0.29;100.00;100618.34;10259917;28;20055;-71
2024/01/27 19:16:54;;;;;;;25.13;13.15;;;;;;;-0.19;100.00;100639.50;10258816;28;20047;-71
2024/01/27 19:21:55;;;;;;;32.60;17.25;;;;;;;-0.22;100.00;100639.69;10258593;28;20039;-71
2024/01/27 19:26:56;;;;;;;30.73;15.38;;;;;;;-0.29;100.00;100633.16;10259050;28;20102;-71
2024/01/27 19:31:56;;;;;;;25.20;13.15;;;;;;;-0.26;100.00;100635.59;10258157;28;20112;-71
2024/01/27 19:36:58;;;;;;;27.75;13.73;;;;;;;-0.38;100.00;100621.50;10257932;29;20190;-71
2024/01/27 19:41:58;;;;;;;27.15;13.10;;;;;;;-0.22;100.00;100647.53;10258272;28;20039;-71
2024/01/27 19:46:59;;;;;;;23.65;12.65;;;;;;;-0.22;100.00;100647.53;10258893;28;20455;-71
2024/01/27 19:52:00;;;;;;;29.65;13.85;;;;;;;-0.48;100.00;100610.75;10257609;28;20404;-72
2024/01/27 19:57:01;;;;;;;24.05;12.75;;;;;;;-0.27;100.00;100645.19;10256115;29;20039;-71
2024/01/27 20:02:03;;;;;;;25.40;13.75;;;;;;;-0.21;100.00;100649.19;10232626;28;20075;-71
2024/01/27 20:07:04;;;;;;;28.05;13.70;;;;;;;-0.20;100.00;100650.88;10218477;29;20136;-71
2024/01/27 20:12:05;;;;;;;25.92;13.25;;;;;;;-0.56;100.00;100606.94;10243574;29;20571;-72
2024/01/27 20:17:06;;;;;;;23.23;12.57;;;;;;;-0.28;100.00;100647.88;10256955;28;20046;-71
2024/01/27 20:22:07;;;;;;;27.27;14.15;;;;;;;-0.23;100.00;100661.50;10256929;28;20122;-71
2024/01/27 20:27:08;;;;;;;32.05;15.35;;;;;;;-0.22;100.00;100662.34;10256465;28;20130;-71
2024/01/27 20:32:09;;;;;;;26.45;14.18;;;;;;;-0.30;100.00;100660.19;10256634;28;20050;-71
2024/01/27 20:37:10;;;;;;;28.15;14.40;;;;;;;-0.61;100.00;100604.56;10256827;28;20495;-72
2024/01/27 20:42:13;;;;;;;26.58;15.18;;;;;;;-0.53;100.00;100612.78;10256108;28;20050;-71
2024/01/27 20:47:14;;;;;;;30.58;14.65;;;;;;;-0.11;100.00;100659.94;10255499;28;20051;-71
2024/01/27 20:52:15;;;;;;;39.60;21.17;;;;;;;-0.11;100.00;100660.78;10256050;28;20456;-71
2024/01/27 20:57:16;;;;;;;37.85;19.02;;;;;;;-0.07;100.00;100664.88;10255727;28;20412;-72
2024/01/27 21:02:18;;;;;;;34.53;18.15;;;;;;;-0.14;100.00;100653.13;10255330;28;20036;-71
2024/01/27 21:07:19;;;;;;;35.17;17.10;;;;;;;-0.04;100.00;100671.69;10254711;28;20047;-71
2024/01/27 21:12:22;;;;;;;43.15;17.50;;;;;;;-0.03;100.00;100674.22;10255621;28;20039;-71
2024/01/27 21:17:22;;;;;;;33.90;18.00;;;;;;;-0.03;100.00;100670.75;10255005;28;20050;-71
2024/01/27 21:22:23;;;;;;;31.15;17.33;;;;;;;-0.34;100.00;100629.97;10254256;28;20043;-71
2024/01/27 21:27:24;;;;;;;32.05;15.60;;;;;;;-0.04;100.00;100675.13;10253702;28;20122;-71
2024/01/27 21:32:24;;;;;;;36.33;18.10;;;;;;;0.01;100.00;100676.66;10253690;28;20046;-71
2024/01/27 21:37:25;;;;;;;29.02;15.50;;;;;;;0.00;100.00;100670.59;10253472;28;20420;-71
2024/01/27 21:42:26;;;;;;;34.78;20.05;;;;;;;-0.09;100.00;100664.16;10253488;28;20043;-72
2024/01/27 21:47:27;;;;;;;37.42;21.70;;;;;;;-0.05;100.00;100660.41;10254349;28;20054;-71
2024/01/27 21:52:28;;;;;;;39.70;20.42;;;;;;;0.01;100.00;100676.66;10252966;28;20073;-71
2024/01/27 21:57:29;;;;;;;34.95;17.58;;;;;;;0.00;100.00;100678.44;10253528;28;20141;-71
2024/01/27 22:02:32;;;;;;;37.63;17.92;;;;;;;0.00;100.00;100667.97;10252762;28;20403;-71
2024/01/27 22:07:32;;;;;;;32.35;18.02;;;;;;;-0.25;100.00;100626.81;10252863;28;20046;-71
2024/01/27 22:12:33;;;;;;;35.15;17.45;;;;;;;-0.29;100.00;100625.31;10252791;28;20126;-71
2024/01/27 22:17:34;;;;;;;40.90;19.45;;;;;;;-0.33;100.00;100619.47;10252251;28;20050;-71
2024/01/27 22:22:36;;;;;;;54.50;28.10;;;;;;;-0.05;100.00;100670.03;10252202;28;20043;-71